LXPMR EGPO-ELLX
Flight info
| Callsign | LXPMR |
|---|---|
| Flight time | N/A |
| Altitude | 35000 |
| Route | DCT ULLAP DCT FOYLE DCT BELOX L603 BUKUT DCT LAMSO DCT REMBA |
| Aircraft | HDJT/L-VGD/A |
Departure
| Time | 2026-05-01 15:27 |
|---|---|
| Airport | Stornoway Airport (EGPO) |
Arrival
| Time | N/A |
|---|---|
| Airport | Luxembourg-Findel International Airport (ELLX) |
| Time | Latitude | Longitude | Altitude | Speed | Heading |
|---|---|---|---|---|---|
| 2026-05-01 15:15 | 58.21431 | -6.32138 | 26 ft | 0 kts | 267° |
| 2026-05-01 15:21 | 58.21430 | -6.32154 | 26 ft | 3 kts | 275° |
| 2026-05-01 15:21 | 58.21455 | -6.32111 | 27 ft | 10 kts | 94° |
| 2026-05-01 15:21 | 58.21485 | -6.31988 | 32 ft | 14 kts | 49° |
| 2026-05-01 15:21 | 58.21576 | -6.31896 | 28 ft | 11 kts | 13° |
| 2026-05-01 15:22 | 58.21727 | -6.32108 | 18 ft | 0 kts | 326° |
| 2026-05-01 15:22 | 58.21754 | -6.32154 | 15 ft | 15 kts | 317° |
| 2026-05-01 15:23 | 58.21865 | -6.32341 | 11 ft | 27 kts | 317° |
| 2026-05-01 15:23 | 58.22008 | -6.32582 | 12 ft | 28 kts | 318° |
| 2026-05-01 15:23 | 58.22142 | -6.32836 | 15 ft | 26 kts | 301° |
| 2026-05-01 15:23 | 58.22179 | -6.33022 | 18 ft | 0 kts | 282° |
| 2026-05-01 15:24 | 58.22187 | -6.33100 | 19 ft | 14 kts | 279° |
| 2026-05-01 15:25 | 58.22214 | -6.33258 | 18 ft | 11 kts | 353° |
| 2026-05-01 15:25 | 58.22363 | -6.33289 | 20 ft | 26 kts | 1° |
| 2026-05-01 15:25 | 58.22359 | -6.33253 | 19 ft | 4 kts | 219° |
| 2026-05-01 15:25 | 58.22344 | -6.33256 | 20 ft | 0 kts | 168° |
| 2026-05-01 15:26 | 58.22334 | -6.33253 | 20 ft | 17 kts | 172° |
| 2026-05-01 15:26 | 58.21914 | -6.33173 | 23 ft | 100 kts | 175° |
| 2026-05-01 15:26 | 58.21117 | -6.33038 | 360 ft | 117 kts | 178° |
| 2026-05-01 15:27 | 58.20277 | -6.32979 | 816 ft | 131 kts | 182° |
| 2026-05-01 15:27 | 58.19291 | -6.33025 | 1216 ft | 158 kts | 184° |
| 2026-05-01 15:27 | 58.18065 | -6.32959 | 1504 ft | 192 kts | 176° |
| 2026-05-01 15:28 | 58.15432 | -6.31022 | 2683 ft | 222 kts | 132° |
| 2026-05-01 15:28 | 58.14763 | -6.28378 | 3382 ft | 231 kts | 110° |
| 2026-05-01 15:28 | 58.14364 | -6.25396 | 4112 ft | 236 kts | 106° |
| 2026-05-01 15:29 | 58.13963 | -6.19325 | 5822 ft | 235 kts | 100° |
| 2026-05-01 15:29 | 58.13801 | -6.16227 | 6567 ft | 238 kts | 100° |
| 2026-05-01 15:29 | 58.13523 | -6.09879 | 8001 ft | 245 kts | 99° |
| 2026-05-01 15:30 | 58.13224 | -6.03368 | 9513 ft | 250 kts | 104° |
| 2026-05-01 15:31 | 58.10411 | -5.91497 | 12244 ft | 254 kts | 124° |
| 2026-05-01 15:31 | 58.08820 | -5.85449 | 13536 ft | 259 kts | 124° |
| 2026-05-01 15:32 | 58.07149 | -5.79328 | 14729 ft | 265 kts | 125° |
| 2026-05-01 15:32 | 58.05472 | -5.73147 | 15919 ft | 268 kts | 125° |
| 2026-05-01 15:33 | 58.02879 | -5.63633 | 17750 ft | 275 kts | 125° |
| 2026-05-01 15:34 | 58.00212 | -5.53882 | 19427 ft | 282 kts | 125° |